Time;durP1;ratioP1;P1;durP2;ratioP2;P2;SDS_P1;SDS_P2;PMS_P1;PMS_P2;Temp;Humidity;BMP_temperature;BMP_pressure;BME280_temperature;BME280_humidity;BME280_pressure;Samples;Min_cycle;Max_cycle;Signal;HPM_P1;HPM_P2
2022/08/18 03:01:05;;;;;;;;;;;27.40;48.90;;;;;;5610130;23;46005;-63
2022/08/18 03:03:31;;;;;;;;;;;27.40;49.20;;;;;;4918350;28;45311;-63
2022/08/18 03:05:56;;;;;;;;;;;27.40;49.20;;;;;;4918968;28;44840;-63
2022/08/18 03:08:22;;;;;;;;;;;27.30;49.30;;;;;;4937580;28;45169;-63
2022/08/18 03:10:50;;;;;;;;;;;27.30;49.50;;;;;;4915893;28;45638;-63
2022/08/18 03:13:15;;;;;;;;;;;27.20;49.70;;;;;;4886945;28;45477;-63
2022/08/18 03:15:41;;;;;;;;;;;27.20;49.30;;;;;;4912497;28;45242;-63
2022/08/18 03:18:06;;;;;;;;;;;27.20;49.50;;;;;;4908430;28;45371;-63
2022/08/18 03:20:32;;;;;;;;;;;27.20;49.40;;;;;;4917680;28;46155;-63
2022/08/18 03:22:59;;;;;;;;;;;27.10;49.60;;;;;;4917868;28;45314;-62
2022/08/18 03:25:24;;;;;;;;;;;27.10;49.80;;;;;;4892760;28;45538;-63
2022/08/18 03:27:50;;;;;;;;;;;27.00;49.60;;;;;;4880750;28;45654;-63
2022/08/18 03:30:15;;;;;;;;;;;27.00;49.70;;;;;;4913261;28;47301;-63
2022/08/18 03:32:41;;;;;;;;;;;27.00;49.70;;;;;;4910907;28;45072;-64
2022/08/18 03:35:07;;;;;;;;;;;27.00;50.00;;;;;;4914877;28;45260;-63
2022/08/18 03:37:32;;;;;;;;;;;26.90;50.00;;;;;;4917330;28;45683;-63
2022/08/18 03:39:58;;;;;;;;;;;26.90;50.30;;;;;;4916739;28;45047;-63
2022/08/18 03:42:23;;;;;;;;;;;26.90;50.30;;;;;;4897314;28;45040;-63
2022/08/18 03:44:49;;;;;;;;;;;26.90;50.20;;;;;;4913902;28;46153;-63
2022/08/18 03:47:14;;;;;;;;;;;26.90;50.10;;;;;;4914548;28;45548;-63
2022/08/18 03:49:40;;;;;;;;;;;26.90;50.10;;;;;;4912340;28;45281;-62
2022/08/18 03:52:07;;;;;;;;;;;27.00;49.90;;;;;;4913474;28;45032;-63
2022/08/18 03:54:32;;;;;;;;;;;27.00;49.70;;;;;;4890285;28;45669;-62
2022/08/18 03:56:59;;;;;;;;;;;27.10;49.70;;;;;;4911922;28;45317;-63
2022/08/18 03:59:24;;;;;;;;;;;27.10;49.60;;;;;;4914321;28;45308;-64
2022/08/18 04:01:50;;;;;;;;;;;27.00;49.80;;;;;;4908457;28;45925;-63
2022/08/18 04:04:17;;;;;;;;;;;27.00;50.00;;;;;;4916559;28;44692;-63
2022/08/18 04:06:44;;;;;;;;;;;27.00;49.90;;;;;;4897590;28;45536;-63
2022/08/18 04:09:10;;;;;;;;;;;27.00;49.90;;;;;;4915825;28;46067;-64
2022/08/18 04:11:36;;;;;;;;;;;27.00;50.40;;;;;;4913467;28;45172;-63
2022/08/18 04:14:02;;;;;;;;;;;27.00;50.00;;;;;;4917470;28;45620;-63
2022/08/18 04:16:28;;;;;;;;;;;27.00;50.00;;;;;;4919336;28;45420;-63
2022/08/18 04:18:58;;;;;;;;;;;27.00;49.90;;;;;;4918214;28;45729;-64
2022/08/18 04:21:24;;;;;;;;;;;27.00;49.70;;;;;;4919700;28;45236;-63
2022/08/18 04:23:49;;;;;;;;;;;27.10;49.50;;;;;;4905744;28;44629;-64
2022/08/18 04:26:17;;;;;;;;;;;27.10;49.60;;;;;;4901785;28;44895;-63
2022/08/18 04:28:42;;;;;;;;;;;27.10;49.70;;;;;;4921622;28;46214;-63
2022/08/18 04:31:09;;;;;;;;;;;27.10;49.60;;;;;;4927088;28;45110;-63
2022/08/18 04:33:34;;;;;;;;;;;27.10;49.60;;;;;;4918276;28;44683;-63
2022/08/18 04:36:06;;;;;;;;;;;27.10;49.60;;;;;;4925490;28;45771;-63
2022/08/18 04:38:32;;;;;;;;;;;27.10;50.20;;;;;;4902568;28;45998;-63
2022/08/18 04:40:57;;;;;;;;;;;27.10;49.50;;;;;;4917984;28;45379;-62
2022/08/18 04:43:23;;;;;;;;;;;27.20;49.60;;;;;;4915781;28;45186;-63
2022/08/18 04:45:49;;;;;;;;;;;27.20;49.30;;;;;;4912599;28;45883;-63
2022/08/18 04:48:15;;;;;;;;;;;27.30;49.40;;;;;;4915363;28;46100;-63
2022/08/18 04:50:41;;;;;;;;;;;27.30;49.40;;;;;;4917437;28;45151;-63
2022/08/18 04:55:51;;;;;;;;;;;27.30;49.60;;;;;;4916449;28;45667;-63
2022/08/18 04:58:17;;;;;;;;;;;27.30;49.70;;;;;;4906256;28;46192;-63
2022/08/18 05:00:44;;;;;;;;;;;27.30;50.00;;;;;;4903027;28;46098;-63
2022/08/18 05:03:10;;;;;;;;;;;27.20;49.90;;;;;;4918287;28;45277;-63
2022/08/18 05:05:35;;;;;;;;;;;27.30;49.90;;;;;;4922362;28;45446;-64
2022/08/18 05:08:01;;;;;;;;;;;27.30;50.00;;;;;;4921288;28;46245;-63
2022/08/18 05:10:26;;;;;;;;;;;27.30;49.90;;;;;;4921076;28;45216;-64
2022/08/18 05:12:51;;;;;;;;;;;27.30;49.90;;;;;;4917453;28;45433;-63
2022/08/18 05:15:17;;;;;;;;;;;27.30;49.90;;;;;;4924249;28;45469;-64
2022/08/18 05:17:43;;;;;;;;;;;27.30;49.80;;;;;;4919895;28;46064;-63
2022/08/18 05:20:09;;;;;;;;;;;27.30;50.00;;;;;;4925991;28;45040;-63
2022/08/18 05:22:38;;;;;;;;;;;27.30;49.90;;;;;;4917590;28;45183;-64
2022/08/18 05:25:04;;;;;;;;;;;27.30;49.80;;;;;;4916698;28;45588;-63
2022/08/18 05:27:31;;;;;;;;;;;27.30;49.80;;;;;;4915832;28;45887;-63
2022/08/18 05:29:57;;;;;;;;;;;27.30;49.90;;;;;;4918583;28;45025;-64
2022/08/18 05:32:22;;;;;;;;;;;27.40;50.20;;;;;;4916233;28;45186;-64
2022/08/18 05:34:48;;;;;;;;;;;27.30;49.80;;;;;;4917333;28;45322;-63
2022/08/18 05:37:20;;;;;;;;;;;27.30;50.10;;;;;;4916069;28;45284;-63
2022/08/18 05:39:56;;;;;;;;;;;27.40;50.10;;;;;;4913608;28;45652;-63
2022/08/18 05:42:23;;;;;;;;;;;27.40;50.10;;;;;;4919394;28;45404;-63
2022/08/18 05:44:49;;;;;;;;;;;27.40;50.00;;;;;;4919296;28;45194;-63
2022/08/18 05:47:15;;;;;;;;;;;27.40;50.10;;;;;;4914501;28;45261;-64
2022/08/18 05:49:42;;;;;;;;;;;27.40;50.80;;;;;;4919011;28;45458;-63
2022/08/18 05:52:18;;;;;;;;;;;27.40;50.10;;;;;;4914589;28;45456;-63
2022/08/18 05:57:33;;;;;;;;;;;27.40;50.30;;;;;;4916803;28;45837;-63
2022/08/18 05:59:58;;;;;;;;;;;27.40;50.60;;;;;;4924995;28;45541;-64
2022/08/18 06:02:24;;;;;;;;;;;27.30;50.40;;;;;;4915550;28;44762;-64
2022/08/18 06:04:59;;;;;;;;;;;27.30;50.70;;;;;;4918689;28;45800;-64
2022/08/18 06:07:45;;;;;;;;;;;27.30;50.60;;;;;;4880508;28;47080;-64
2022/08/18 06:10:11;;;;;;;;;;;27.30;51.00;;;;;;4916688;28;45459;-64
2022/08/18 06:12:37;;;;;;;;;;;27.30;50.60;;;;;;4922280;28;45413;-64
2022/08/18 06:15:03;;;;;;;;;;;27.30;50.80;;;;;;4905885;28;44926;-64
2022/08/18 06:17:37;;;;;;;;;;;27.30;50.60;;;;;;4922589;28;45185;-64
2022/08/18 06:20:09;;;;;;;;;;;27.30;50.60;;;;;;4904376;28;45317;-64
2022/08/18 06:22:38;;;;;;;;;;;27.30;50.40;;;;;;4901818;28;45316;-64
2022/08/18 06:25:14;;;;;;;;;;;27.20;50.50;;;;;;4913656;28;45024;-64
2022/08/18 06:27:54;;;;;;;;;;;27.20;50.30;;;;;;4886457;29;47057;-64
2022/08/18 06:30:24;;;;;;;;;;;27.30;50.30;;;;;;4914081;28;44960;-64
2022/08/18 06:32:55;;;;;;;;;;;27.40;50.00;;;;;;4916837;28;45348;-64
2022/08/18 06:35:30;;;;;;;;;;;27.40;49.80;;;;;;4880743;29;45679;-64
2022/08/18 06:41:03;;;;;;;;;;;27.50;49.30;;;;;;4911999;28;45422;-64
2022/08/18 06:43:28;;;;;;;;;;;27.50;49.50;;;;;;4916688;28;45592;-64
2022/08/18 06:45:54;;;;;;;;;;;27.50;49.50;;;;;;4907818;28;45681;-64
2022/08/18 06:48:23;;;;;;;;;;;27.50;49.60;;;;;;4912123;28;46133;-64
2022/08/18 06:50:52;;;;;;;;;;;27.50;49.60;;;;;;4919638;28;45256;-63
2022/08/18 06:53:18;;;;;;;;;;;27.50;49.20;;;;;;4912783;28;45136;-64
2022/08/18 06:55:45;;;;;;;;;;;27.60;49.20;;;;;;4897782;28;45400;-64
2022/08/18 06:58:16;;;;;;;;;;;27.60;49.10;;;;;;4897264;28;45314;-63
2022/08/18 07:00:48;;;;;;;;;;;27.60;49.20;;;;;;4880105;29;46292;-64
2022/08/18 07:03:14;;;;;;;;;;;27.60;48.90;;;;;;4896945;28;45188;-64
2022/08/18 07:06:00;;;;;;;;;;;27.70;48.90;;;;;;4904731;28;45424;-63
